createdAt,value
2022-11-01T00:02:04.905Z,12.27
2022-11-01T00:04:32.288Z,10.70
2022-11-01T00:06:59.605Z,9.63
2022-11-01T00:09:26.917Z,9.15
2022-11-01T00:11:54.243Z,7.88
2022-11-01T00:14:21.718Z,7.55
2022-11-01T00:16:49.112Z,7.47
2022-11-01T00:19:16.564Z,7.75
2022-11-01T00:21:43.977Z,8.25
2022-11-01T00:24:11.380Z,7.30
2022-11-01T00:26:38.789Z,7.03
2022-11-01T00:29:06.274Z,7.32
2022-11-01T00:31:33.550Z,8.05
2022-11-01T00:34:03.875Z,8.27
2022-11-01T00:36:33.259Z,7.60
2022-11-01T00:39:00.642Z,8.13
2022-11-01T00:41:28.000Z,7.75
2022-11-01T00:43:55.312Z,8.20
2022-11-01T00:46:22.635Z,7.40
2022-11-01T00:48:49.915Z,7.80
2022-11-01T00:51:17.218Z,7.70
2022-11-01T00:53:44.471Z,7.80
2022-11-01T00:56:11.787Z,7.68
2022-11-01T00:58:39.119Z,7.35
2022-11-01T01:01:06.556Z,8.07
2022-11-01T01:03:34.100Z,7.63
2022-11-01T01:06:01.467Z,7.95
2022-11-01T01:08:28.785Z,8.32
2022-11-01T01:10:56.113Z,8.20
2022-11-01T01:13:23.463Z,7.68
2022-11-01T01:15:50.786Z,8.23
2022-11-01T01:18:18.118Z,8.20
2022-11-01T01:20:45.413Z,7.30
2022-11-01T01:23:12.775Z,7.63
2022-11-01T01:25:41.313Z,8.48
2022-11-01T01:28:09.045Z,8.32
2022-11-01T01:30:41.356Z,7.88
2022-11-01T01:33:09.309Z,7.65
2022-11-01T01:35:37.920Z,7.25
2022-11-01T01:38:05.903Z,7.45
2022-11-01T01:40:34.316Z,7.10
2022-11-01T01:43:01.622Z,7.15
2022-11-01T01:45:33.448Z,7.13
2022-11-01T01:48:24.969Z,7.47
2022-11-01T01:50:59.595Z,7.05
2022-11-01T01:53:28.134Z,7.32
2022-11-01T01:56:15.163Z,7.28
2022-11-01T01:58:46.621Z,7.18
2022-11-01T02:01:14.043Z,7.32
2022-11-01T02:03:41.469Z,7.20
2022-11-01T02:06:16.630Z,7.45
2022-11-01T02:08:45.982Z,6.43
2022-11-01T02:11:13.285Z,6.03
2022-11-01T02:13:40.656Z,7.32
2022-11-01T02:16:29.679Z,7.05
2022-11-01T02:19:14.825Z,7.15
2022-11-01T02:22:10.067Z,7.75
2022-11-01T02:24:56.117Z,7.13
2022-11-01T02:27:24.501Z,7.45
2022-11-01T02:30:07.046Z,6.80
2022-11-01T02:32:59.898Z,6.95
2022-11-01T02:35:36.557Z,6.43
2022-11-01T02:38:33.962Z,6.25
2022-11-01T02:41:22.776Z,6.20
2022-11-01T02:44:02.561Z,6.25
2022-11-01T02:46:54.214Z,6.57
2022-11-01T02:49:21.538Z,7.78
2022-11-01T02:51:48.837Z,6.63
2022-11-01T02:54:31.217Z,6.28
2022-11-01T02:57:15.544Z,5.93
2022-11-01T02:59:44.841Z,6.32
2022-11-01T03:02:21.141Z,6.60
2022-11-01T03:04:48.481Z,5.38
2022-11-01T03:07:15.769Z,5.65
2022-11-01T03:09:43.137Z,5.93
2022-11-01T03:12:19.923Z,5.15
2022-11-01T03:14:54.742Z,5.53
2022-11-01T03:17:35.428Z,5.20
2022-11-01T03:20:05.488Z,5.75
2022-11-01T03:22:32.737Z,5.50
2022-11-01T03:25:31.657Z,5.28
2022-11-01T03:28:00.168Z,4.97
2022-11-01T03:30:27.465Z,4.88
2022-11-01T03:32:56.021Z,5.00
2022-11-01T03:35:35.790Z,5.20
2022-11-01T03:38:05.892Z,5.18
2022-11-01T03:40:33.204Z,5.05
2022-11-01T03:43:05.964Z,4.93
2022-11-01T03:45:34.194Z,4.35
2022-11-01T03:48:01.929Z,4.45
2022-11-01T03:50:29.522Z,4.40
2022-11-01T03:52:56.943Z,4.55
2022-11-01T03:55:24.441Z,4.63
2022-11-01T03:57:57.136Z,4.88
2022-11-01T04:00:29.819Z,4.63
2022-11-01T04:02:57.623Z,5.00
2022-11-01T04:05:26.347Z,5.15
2022-11-01T04:07:53.768Z,5.50
2022-11-01T04:10:21.640Z,4.75
2022-11-01T04:12:49.661Z,4.97
2022-11-01T04:15:36.154Z,4.97
2022-11-01T04:18:25.978Z,5.05
2022-11-01T04:20:53.792Z,5.22
2022-11-01T04:23:21.143Z,5.40
2022-11-01T04:25:48.477Z,4.82
2022-11-01T04:28:16.023Z,4.88
2022-11-01T04:30:43.885Z,5.03
2022-11-01T04:33:11.270Z,4.93
2022-11-01T04:35:38.862Z,5.07
2022-11-01T04:38:06.639Z,5.55
2022-11-01T04:40:34.434Z,6.85
2022-11-01T04:43:01.758Z,5.32
2022-11-01T04:45:29.075Z,5.35
2022-11-01T04:48:03.748Z,5.03
2022-11-01T04:50:31.590Z,5.15
2022-11-01T04:52:59.934Z,4.53
2022-11-01T04:55:28.021Z,5.30
2022-11-01T04:57:55.473Z,4.75
2022-11-01T05:00:25.844Z,4.82
2022-11-01T05:02:53.182Z,5.05
2022-11-01T05:05:20.497Z,5.03
2022-11-01T05:07:47.782Z,5.20
2022-11-01T05:10:15.089Z,5.05
2022-11-01T05:12:42.341Z,5.43
2022-11-01T05:15:09.806Z,5.97
2022-11-01T05:17:41.764Z,5.22
2022-11-01T05:20:10.069Z,5.80
2022-11-01T05:22:37.642Z,5.40
2022-11-01T05:25:05.360Z,5.20
2022-11-01T05:27:32.657Z,5.43
2022-11-01T05:30:00.093Z,4.93
2022-11-01T05:32:27.531Z,5.00
2022-11-01T05:34:54.874Z,4.90
2022-11-01T05:37:25.787Z,6.15
2022-11-01T05:39:55.283Z,5.75
2022-11-01T05:42:22.569Z,5.68
2022-11-01T05:44:49.844Z,5.60
2022-11-01T05:47:17.649Z,4.97
2022-11-01T05:49:45.003Z,5.45
2022-11-01T05:52:12.313Z,5.10
2022-11-01T05:54:39.622Z,5.22
2022-11-01T05:57:06.897Z,4.88
2022-11-01T05:59:34.313Z,4.97
2022-11-01T06:02:01.697Z,5.20
2022-11-01T06:04:29.151Z,5.03
2022-11-01T06:06:56.424Z,5.75
2022-11-01T06:09:23.750Z,7.20
2022-11-01T06:11:51.018Z,5.75
2022-11-01T06:14:18.876Z,5.60
2022-11-01T06:16:46.286Z,5.03
2022-11-01T06:19:13.546Z,4.68
2022-11-01T06:21:40.852Z,4.68
2022-11-01T06:24:08.343Z,4.97
2022-11-01T06:26:35.719Z,4.85
2022-11-01T06:29:03.149Z,5.18
2022-11-01T06:31:30.505Z,4.82
2022-11-01T06:33:57.809Z,4.25
2022-11-01T06:36:25.227Z,4.18
2022-11-01T06:38:52.937Z,4.32
2022-11-01T06:41:20.217Z,4.90
2022-11-01T06:43:50.656Z,5.00
2022-11-01T06:46:18.018Z,4.20
2022-11-01T06:48:48.024Z,4.70
2022-11-01T06:51:15.338Z,3.97
2022-11-01T06:53:42.656Z,3.90
2022-11-01T06:56:09.959Z,4.00
2022-11-01T06:58:37.435Z,4.15
2022-11-01T07:01:05.071Z,4.20
2022-11-01T07:03:33.177Z,3.45
2022-11-01T07:06:00.710Z,3.25
2022-11-01T07:08:28.070Z,3.45
2022-11-01T07:10:55.648Z,3.58
2022-11-01T07:13:22.928Z,3.42
2022-11-01T07:15:50.292Z,3.20
2022-11-01T07:18:17.591Z,3.47
2022-11-01T07:23:17.438Z,3.78
2022-11-01T07:25:44.771Z,3.30
2022-11-01T07:28:12.239Z,3.22
2022-11-01T07:30:39.558Z,4.30
2022-11-01T07:33:07.237Z,3.38
2022-11-01T07:35:35.075Z,3.97
2022-11-01T07:38:05.062Z,3.83
2022-11-01T07:40:35.872Z,3.45
2022-11-01T07:43:03.809Z,3.50
2022-11-01T07:45:32.154Z,3.70
2022-11-01T07:48:02.651Z,3.33
2022-11-01T07:50:31.431Z,3.63
2022-11-01T07:53:02.354Z,2.97
2022-11-01T07:55:29.768Z,3.90
2022-11-01T07:57:57.056Z,4.47
2022-11-01T08:00:24.583Z,3.47
2022-11-01T08:02:51.976Z,3.50
2022-11-01T08:05:19.302Z,3.67
2022-11-01T08:07:46.596Z,3.60
2022-11-01T08:10:13.972Z,3.53
2022-11-01T08:12:41.253Z,3.90
2022-11-01T08:15:09.952Z,4.20
2022-11-01T08:17:37.349Z,4.72
2022-11-01T08:20:05.455Z,4.38
2022-11-01T08:22:33.258Z,4.78
2022-11-01T08:25:00.556Z,4.43
2022-11-01T08:27:30.323Z,4.40
2022-11-01T08:30:00.451Z,4.68
2022-11-01T08:32:27.779Z,4.70
2022-11-01T08:34:55.127Z,4.53
2022-11-01T08:37:22.438Z,4.63
2022-11-01T08:39:49.749Z,4.68
2022-11-01T08:42:17.058Z,4.85
2022-11-01T08:44:44.333Z,4.30
2022-11-01T08:47:11.642Z,5.22
2022-11-01T08:49:38.969Z,4.82
2022-11-01T08:52:06.304Z,5.13
2022-11-01T08:54:34.323Z,5.18
2022-11-01T08:57:02.698Z,4.40
2022-11-01T08:59:30.009Z,5.13
2022-11-01T09:01:57.513Z,4.63
2022-11-01T09:04:24.920Z,4.43
2022-11-01T09:06:52.266Z,4.38
2022-11-01T09:09:19.621Z,5.03
2022-11-01T09:11:46.923Z,4.10
2022-11-01T09:14:14.200Z,4.72
2022-11-01T09:16:41.528Z,4.68
2022-11-01T09:19:08.826Z,4.80
2022-11-01T09:21:36.267Z,5.40
2022-11-01T09:24:03.942Z,4.95
2022-11-01T09:26:31.250Z,6.97
2022-11-01T09:28:58.772Z,6.93
2022-11-01T09:31:26.171Z,5.07
2022-11-01T09:33:57.385Z,4.72
2022-11-01T09:36:25.204Z,8.73
2022-11-01T09:38:52.581Z,4.90
2022-11-01T09:41:47.327Z,4.45
2022-11-01T09:44:29.564Z,3.88
2022-11-01T09:47:04.877Z,4.60
2022-11-01T09:49:33.581Z,4.03
2022-11-01T09:52:00.901Z,3.78
2022-11-01T09:54:28.272Z,4.30
2022-11-01T09:57:17.131Z,4.47
2022-11-01T09:59:44.489Z,4.10
2022-11-01T10:02:42.089Z,3.90
2022-11-01T10:05:27.216Z,3.65
2022-11-01T10:08:07.497Z,3.60
2022-11-01T10:10:49.247Z,3.78
2022-11-01T10:13:44.628Z,3.70
2022-11-01T10:16:32.228Z,3.92
2022-11-01T10:19:16.181Z,3.83
2022-11-01T10:21:50.374Z,3.63
2022-11-01T10:24:46.575Z,4.13
2022-11-01T10:27:16.374Z,4.80
2022-11-01T10:30:01.862Z,3.75
2022-11-01T10:32:47.989Z,2.88
2022-11-01T10:35:22.611Z,3.50
2022-11-01T10:38:26.546Z,3.25
2022-11-01T10:41:32.333Z,2.80
2022-11-01T10:44:03.683Z,3.08
2022-11-01T10:46:39.812Z,3.40
2022-11-01T10:49:14.768Z,3.00
2022-11-01T10:51:42.147Z,3.03
2022-11-01T10:54:16.185Z,2.72
2022-11-01T10:56:45.960Z,2.80
2022-11-01T10:59:22.998Z,3.10
2022-11-01T11:01:50.921Z,2.95
2022-11-01T11:04:23.442Z,3.03
2022-11-01T11:06:51.489Z,2.63
2022-11-01T11:09:32.686Z,2.70
2022-11-01T11:12:15.257Z,2.47
2022-11-01T11:14:42.756Z,2.67
2022-11-01T11:17:29.033Z,3.03
2022-11-01T11:20:00.417Z,2.50
2022-11-01T11:22:27.688Z,2.80
2022-11-01T11:24:58.149Z,2.50
2022-11-01T11:27:32.854Z,2.20
2022-11-01T11:30:07.684Z,2.22
2022-11-01T11:32:37.044Z,2.60
2022-11-01T11:35:04.427Z,2.40
2022-11-01T11:37:33.583Z,2.20
2022-11-01T11:40:26.884Z,2.53
2022-11-01T11:42:55.793Z,2.85
2022-11-01T11:45:30.176Z,2.20
2022-11-01T11:50:33.737Z,2.10
2022-11-01T11:53:07.075Z,2.33
2022-11-01T11:56:08.363Z,2.00
2022-11-01T11:58:40.875Z,2.10
2022-11-01T12:01:10.233Z,2.10
2022-11-01T12:03:49.438Z,2.33
2022-11-01T12:06:20.916Z,2.33
2022-11-01T12:08:53.390Z,2.15
2022-11-01T12:11:21.830Z,2.30
2022-11-01T12:14:03.082Z,2.03
2022-11-01T12:16:30.549Z,2.13
2022-11-01T12:18:59.740Z,2.03
2022-11-01T12:21:45.133Z,1.70
2022-11-01T12:24:27.068Z,1.63
2022-11-01T12:26:55.952Z,1.60
2022-11-01T12:29:36.802Z,1.83
2022-11-01T12:32:25.670Z,1.60
2022-11-01T12:34:53.093Z,1.55
2022-11-01T12:37:26.017Z,1.48
2022-11-01T12:40:01.837Z,1.35
2022-11-01T12:42:33.895Z,1.75
2022-11-01T12:45:05.381Z,1.40
2022-11-01T12:47:37.701Z,1.58
2022-11-01T12:50:06.440Z,2.05
2022-11-01T12:52:52.019Z,1.42
2022-11-01T12:55:35.521Z,1.98
2022-11-01T12:58:04.145Z,1.77
2022-11-01T13:00:41.461Z,1.92
2022-11-01T13:03:08.764Z,1.80
2022-11-01T13:05:57.133Z,2.22
2022-11-01T13:08:30.245Z,2.20
2022-11-01T13:11:00.533Z,2.20
2022-11-01T13:13:33.176Z,1.83
2022-11-01T13:16:09.390Z,1.88
2022-11-01T13:18:47.698Z,1.88
2022-11-01T13:21:58.280Z,2.05
2022-11-01T13:24:40.339Z,1.90
2022-11-01T13:27:12.372Z,2.25
2022-11-01T13:30:01.436Z,2.33
2022-11-01T13:33:00.464Z,2.38
2022-11-01T13:35:40.123Z,2.25
2022-11-01T13:38:13.312Z,2.38
2022-11-01T13:40:43.610Z,2.38
2022-11-01T13:43:13.200Z,2.50
2022-11-01T13:45:56.337Z,2.10
2022-11-01T13:48:46.504Z,2.20
2022-11-01T13:51:25.750Z,2.40
2022-11-01T13:53:57.790Z,2.72
2022-11-01T13:56:32.317Z,2.50
2022-11-01T13:58:59.795Z,2.72
2022-11-01T14:01:31.205Z,2.35
2022-11-01T14:04:16.932Z,2.90
2022-11-01T14:06:51.416Z,2.40
2022-11-01T14:12:16.761Z,2.43
2022-11-01T14:14:47.046Z,2.25
2022-11-01T14:17:56.008Z,2.28
2022-11-01T14:20:26.434Z,3.28
2022-11-01T14:22:54.445Z,3.00
2022-11-01T14:25:31.585Z,2.40
2022-11-01T14:28:17.232Z,2.60
2022-11-01T14:30:46.233Z,3.60
2022-11-01T14:33:18.380Z,2.15
2022-11-01T14:35:55.815Z,2.10
2022-11-01T14:38:28.683Z,2.30
2022-11-01T14:40:56.813Z,1.92
2022-11-01T14:43:33.918Z,2.05
2022-11-01T14:46:03.094Z,2.35
2022-11-01T14:48:37.050Z,2.47
2022-11-01T14:51:25.230Z,1.98
2022-11-01T14:54:28.755Z,2.97
2022-11-01T14:56:56.919Z,3.38
2022-11-01T14:59:25.104Z,2.15
2022-11-01T15:01:59.484Z,2.17
2022-11-01T15:04:44.186Z,2.45
2022-11-01T15:07:19.731Z,3.00
2022-11-01T15:10:10.638Z,2.88
2022-11-01T15:12:51.654Z,1.90
2022-11-01T15:15:30.585Z,2.00
2022-11-01T15:18:00.353Z,2.05
2022-11-01T15:20:35.530Z,2.08
2022-11-01T15:23:19.653Z,2.03
2022-11-01T15:25:53.632Z,2.38
2022-11-01T15:28:25.958Z,2.13
2022-11-01T15:30:58.205Z,2.00
2022-11-01T15:33:28.050Z,2.00
2022-11-01T15:35:56.536Z,2.22
2022-11-01T15:38:23.779Z,1.75
2022-11-01T15:40:52.196Z,2.15
2022-11-01T15:43:21.674Z,1.90
2022-11-01T15:46:13.134Z,2.05
2022-11-01T15:48:40.465Z,1.98
2022-11-01T15:51:09.020Z,2.45
2022-11-01T15:53:36.485Z,2.17
2022-11-01T15:56:25.901Z,2.20
2022-11-01T15:58:55.374Z,2.47
2022-11-01T16:01:23.406Z,2.35
2022-11-01T16:04:03.098Z,5.25
2022-11-01T16:06:40.435Z,4.28
2022-11-01T16:09:31.871Z,3.08
2022-11-01T16:12:00.423Z,2.42
2022-11-01T16:14:33.534Z,2.38
2022-11-01T16:17:06.432Z,2.22
2022-11-01T16:19:45.093Z,2.47
2022-11-01T16:22:41.926Z,1.98
2022-11-01T16:25:12.049Z,2.17
2022-11-01T16:27:58.775Z,2.42
2022-11-01T16:30:39.090Z,2.33
2022-11-01T16:33:17.054Z,2.90
2022-11-01T16:35:44.850Z,2.40
2022-11-01T16:38:25.122Z,2.75
2022-11-01T16:40:57.105Z,2.92
2022-11-01T16:43:28.818Z,2.70
2022-11-01T16:45:56.209Z,3.03
2022-11-01T16:48:25.606Z,2.70
2022-11-01T16:50:54.001Z,2.65
2022-11-01T16:53:22.336Z,2.90
2022-11-01T16:55:49.726Z,3.28
2022-11-01T16:58:19.257Z,2.58
2022-11-01T17:00:55.529Z,2.67
2022-11-01T17:03:22.940Z,2.88
2022-11-01T17:05:55.162Z,2.85
2022-11-01T17:08:24.717Z,2.53
2022-11-01T17:10:52.093Z,3.00
2022-11-01T17:13:19.501Z,3.00
2022-11-01T17:15:50.504Z,3.42
2022-11-01T17:18:36.733Z,3.13
2022-11-01T17:21:06.093Z,2.83
2022-11-01T17:23:34.598Z,3.05
2022-11-01T17:26:02.788Z,3.10
2022-11-01T17:28:30.138Z,2.90
2022-11-01T17:30:57.478Z,3.67
2022-11-01T17:33:24.805Z,3.45
2022-11-01T17:35:52.169Z,3.63
2022-11-01T17:38:38.096Z,3.33
2022-11-01T17:41:14.806Z,3.08
2022-11-01T17:43:42.225Z,3.15
2022-11-01T17:46:17.797Z,5.10
2022-11-01T17:48:45.135Z,3.70
2022-11-01T17:51:12.503Z,3.97
2022-11-01T17:53:42.121Z,3.58
2022-11-01T17:56:09.719Z,4.47
2022-11-01T17:58:37.137Z,5.00
2022-11-01T18:01:05.039Z,4.13
2022-11-01T18:03:32.397Z,13.65
2022-11-01T18:05:59.783Z,5.30
2022-11-01T18:08:28.003Z,3.83
2022-11-01T18:11:01.418Z,3.33
2022-11-01T18:13:38.406Z,3.75
2022-11-01T18:16:08.434Z,3.45
2022-11-01T18:19:00.499Z,3.58
2022-11-01T18:21:31.885Z,5.32
2022-11-01T18:24:03.595Z,4.18
2022-11-01T18:26:31.020Z,4.00
2022-11-01T18:29:23.923Z,3.30
2022-11-01T18:32:03.510Z,3.10
2022-11-01T18:34:34.477Z,3.40
2022-11-01T18:37:09.034Z,3.47
2022-11-01T18:39:38.029Z,3.53
2022-11-01T18:42:09.264Z,3.53
2022-11-01T18:44:37.648Z,3.60
2022-11-01T18:47:11.809Z,3.58
2022-11-01T18:49:39.105Z,3.63
2022-11-01T18:52:14.768Z,4.20
2022-11-01T18:54:56.752Z,3.50
2022-11-01T18:57:24.846Z,3.83
2022-11-01T18:59:53.218Z,3.63
2022-11-01T19:02:27.107Z,3.50
2022-11-01T19:05:17.792Z,3.60
2022-11-01T19:08:09.517Z,3.60
2022-11-01T19:10:35.281Z,4.07
2022-11-01T19:13:02.670Z,4.20
2022-11-01T19:15:30.554Z,4.18
2022-11-01T19:17:59.073Z,4.82
2022-11-01T19:20:38.851Z,4.97
2022-11-01T19:23:11.873Z,3.88
2022-11-01T19:25:39.181Z,4.03
2022-11-01T19:28:27.696Z,4.20
2022-11-01T19:30:56.123Z,4.47
2022-11-01T19:33:38.723Z,3.75
2022-11-01T19:36:13.025Z,4.05
2022-11-01T19:38:44.857Z,4.50
2022-11-01T19:41:14.341Z,3.92
2022-11-01T19:43:41.594Z,4.78
2022-11-01T19:46:11.393Z,4.88
2022-11-01T19:48:38.681Z,4.70
2022-11-01T19:51:18.510Z,5.45
2022-11-01T19:53:45.896Z,6.75
2022-11-01T19:56:14.309Z,6.07
2022-11-01T19:58:48.867Z,5.45
2022-11-01T20:01:19.941Z,4.55
2022-11-01T20:04:24.566Z,5.30
2022-11-01T20:07:00.986Z,4.93
2022-11-01T20:09:33.365Z,4.88
2022-11-01T20:12:00.716Z,5.28
2022-11-01T20:14:28.095Z,4.70
2022-11-01T20:16:55.493Z,4.43
2022-11-01T20:19:22.826Z,4.53
2022-11-01T20:21:50.150Z,4.30
2022-11-01T20:24:17.554Z,4.35
2022-11-01T20:26:44.956Z,3.90
2022-11-01T20:29:12.294Z,4.53
2022-11-01T20:31:39.603Z,5.03
2022-11-01T20:34:09.160Z,4.60
2022-11-01T20:36:36.534Z,4.45
2022-11-01T20:39:04.037Z,4.88
2022-11-01T20:41:31.585Z,6.95
2022-11-01T20:43:59.077Z,13.88
2022-11-01T20:46:26.372Z,5.68
2022-11-01T20:48:53.760Z,5.55
2022-11-01T20:51:21.132Z,6.88
2022-11-01T20:53:48.415Z,5.88
2022-11-01T20:56:15.760Z,5.45
2022-11-01T20:58:43.099Z,5.22
2022-11-01T21:01:15.717Z,5.15
2022-11-01T21:03:43.403Z,4.88
2022-11-01T21:06:15.301Z,5.30
2022-11-01T21:08:47.049Z,5.28
2022-11-01T21:11:43.713Z,5.10
2022-11-01T21:14:16.664Z,6.00
2022-11-01T21:16:44.174Z,6.78
2022-11-01T21:19:20.326Z,6.55
2022-11-01T21:21:50.461Z,6.18
2022-11-01T21:24:30.731Z,5.40
2022-11-01T21:27:13.351Z,5.22
2022-11-01T21:29:44.887Z,4.72
2022-11-01T21:32:39.829Z,4.55
2022-11-01T21:35:20.755Z,5.10
2022-11-01T21:37:48.386Z,4.90
2022-11-01T21:40:28.976Z,4.93
2022-11-01T21:42:56.568Z,4.95
2022-11-01T21:45:30.880Z,5.20
2022-11-01T21:48:19.904Z,4.95
2022-11-01T21:50:47.474Z,4.55
2022-11-01T21:53:14.812Z,4.57
2022-11-01T21:55:42.117Z,3.90
2022-11-01T21:58:09.406Z,4.32
2022-11-01T22:00:36.693Z,4.28
2022-11-01T22:03:04.179Z,3.78
2022-11-01T22:05:31.600Z,4.38
2022-11-01T22:07:58.884Z,4.22
2022-11-01T22:10:26.177Z,4.28
2022-11-01T22:12:53.516Z,4.28
2022-11-01T22:15:20.772Z,4.20
2022-11-01T22:17:48.081Z,4.95
2022-11-01T22:20:15.447Z,4.43
2022-11-01T22:22:42.761Z,5.22
2022-11-01T22:25:10.627Z,4.50
2022-11-01T22:27:38.016Z,4.50
2022-11-01T22:30:06.039Z,4.18
2022-11-01T22:32:33.357Z,4.45
2022-11-01T22:35:00.665Z,3.90
2022-11-01T22:37:28.843Z,4.22
2022-11-01T22:39:56.161Z,4.15
2022-11-01T22:42:24.532Z,4.13
2022-11-01T22:44:51.830Z,5.30
2022-11-01T22:47:26.637Z,7.00
2022-11-01T22:49:55.692Z,5.10
2022-11-01T22:52:33.740Z,4.05
2022-11-01T22:55:10.911Z,3.60
2022-11-01T22:57:48.893Z,3.83
2022-11-01T23:00:30.918Z,4.30
2022-11-01T23:03:11.238Z,4.50
2022-11-01T23:05:38.526Z,4.50
2022-11-01T23:08:33.056Z,3.92
2022-11-01T23:11:00.494Z,4.22
2022-11-01T23:13:50.213Z,3.75
2022-11-01T23:16:32.099Z,5.25
2022-11-01T23:19:03.562Z,3.95
2022-11-01T23:21:30.893Z,4.10
2022-11-01T23:23:58.233Z,3.78
2022-11-01T23:26:25.947Z,4.57
2022-11-01T23:28:53.984Z,4.25
2022-11-01T23:31:21.542Z,4.03
2022-11-01T23:33:49.024Z,4.18
2022-11-01T23:36:32.141Z,4.55
2022-11-01T23:39:00.362Z,4.43
2022-11-01T23:41:36.073Z,4.07
2022-11-01T23:44:10.735Z,4.45
2022-11-01T23:46:38.064Z,4.35
2022-11-01T23:49:23.477Z,4.57
2022-11-01T23:51:51.107Z,4.25
2022-11-01T23:54:33.390Z,4.00
2022-11-01T23:57:00.805Z,4.40
2022-11-01T23:59:28.130Z,4.07
